Time;durP1;ratioP1;P1;durP2;ratioP2;P2;SDS_P1;SDS_P2;PMS_P1;PMS_P2;Temp;Humidity;BMP_temperature;BMP_pressure;BME280_temperature;BME280_humidity;BME280_pressure;Samples;Min_cycle;Max_cycle;Signal;HPM_P1;HPM_P2
2023/12/25 00:02:11;;;;;;;2.10;0.60;;;;;;;6.43;56.88;99698.56;4978528;28;20235;-62
2023/12/25 00:04:37;;;;;;;3.45;0.13;;;;;;;6.62;56.31;99722.03;4960141;28;20189;-65
2023/12/25 00:07:03;;;;;;;6.63;0.75;;;;;;;6.86;55.71;99722.75;4958662;28;20045;-64
2023/12/25 00:09:28;;;;;;;14.10;0.43;;;;;;;6.61;55.77;99729.88;4958252;28;20038;-64
2023/12/25 00:11:54;;;;;;;12.93;0.50;;;;;;;6.58;55.83;99714.44;4966747;28;20050;-64
2023/12/25 00:14:20;;;;;;;5.22;0.57;;;;;;;6.65;55.83;99729.66;4959948;28;20045;-64
2023/12/25 00:16:46;;;;;;;9.02;0.60;;;;;;;6.85;55.65;99731.44;4962606;28;20069;-64
2023/12/25 00:19:12;;;;;;;3.35;0.45;;;;;;;6.77;56.12;99727.47;4961664;28;20069;-63
2023/12/25 00:21:37;;;;;;;7.00;1.40;;;;;;;6.62;56.76;99735.00;4961360;28;20047;-63
2023/12/25 00:24:04;;;;;;;4.88;0.52;;;;;;;6.91;56.06;99746.75;4956732;28;20042;-65
2023/12/25 00:26:30;;;;;;;6.05;0.57;;;;;;;6.31;57.94;99732.81;4960246;28;20039;-64
2023/12/25 00:29:02;;;;;;;6.20;0.73;;;;;;;6.62;58.14;99741.91;4959482;28;20026;-64
2023/12/25 00:31:27;;;;;;;13.02;1.00;;;;;;;6.61;58.66;99758.44;4964103;28;20053;-64
2023/12/25 00:33:53;;;;;;;8.73;0.55;;;;;;;6.69;59.32;99761.56;4955796;28;20030;-63
2023/12/25 00:36:20;;;;;;;6.82;0.50;;;;;;;6.59;59.74;99745.50;4959836;28;20038;-63
2023/12/25 00:38:47;;;;;;;6.22;0.55;;;;;;;6.85;59.19;99747.00;4957455;28;20034;-63
2023/12/25 00:41:12;;;;;;;8.63;0.63;;;;;;;6.63;59.79;99759.22;4966928;28;20034;-63
2023/12/25 00:43:38;;;;;;;6.72;0.32;;;;;;;6.86;59.17;99740.91;4974383;28;21078;-64
2023/12/25 00:46:05;;;;;;;5.93;0.88;;;;;;;6.62;59.81;99732.41;4955596;28;20704;-63
2023/12/25 00:48:30;;;;;;;7.32;0.50;;;;;;;6.73;59.45;99726.78;4960582;28;20153;-62
2023/12/25 00:50:57;;;;;;;3.33;0.50;;;;;;;6.78;59.31;99745.59;4955477;28;20055;-65
2023/12/25 00:53:22;;;;;;;8.30;1.33;;;;;;;6.88;58.81;99744.28;4975848;28;20089;-63
2023/12/25 00:55:49;;;;;;;10.95;1.77;;;;;;;6.24;60.07;99755.53;4953318;28;20767;-63
2023/12/25 00:58:14;;;;;;;12.20;0.93;;;;;;;6.77;58.85;99759.47;4968287;28;20069;-62
2023/12/25 01:00:40;;;;;;;7.90;1.48;;;;;;;6.73;58.72;99751.88;4961367;28;20088;-64
2023/12/25 01:03:05;;;;;;;10.85;0.60;;;;;;;6.88;58.40;99736.47;4960462;28;20580;-65
2023/12/25 01:05:31;;;;;;;11.55;0.80;;;;;;;7.02;58.12;99756.69;4963214;28;20041;-66
2023/12/25 01:07:57;;;;;;;8.57;0.88;;;;;;;6.56;59.29;99755.19;4974539;28;20026;-66
2023/12/25 01:10:22;;;;;;;4.65;0.47;;;;;;;6.55;59.49;99712.81;4963419;28;20133;-64
2023/12/25 01:12:48;;;;;;;11.27;0.60;;;;;;;6.71;59.02;99744.16;4964699;28;20524;-65
2023/12/25 01:15:15;;;;;;;5.07;0.75;;;;;;;6.65;58.99;99757.38;4954130;28;20513;-65
2023/12/25 01:17:41;;;;;;;10.05;1.15;;;;;;;6.86;58.38;99764.28;4972033;28;20662;-64
2023/12/25 01:20:07;;;;;;;4.55;0.85;;;;;;;6.48;58.87;99748.56;4970153;28;20125;-68
2023/12/25 01:22:33;;;;;;;6.97;0.85;;;;;;;6.69;58.16;99761.56;4972218;28;20062;-64
2023/12/25 01:24:59;;;;;;;9.43;0.55;;;;;;;6.85;57.73;99772.97;4955648;28;20126;-63
2023/12/25 01:27:24;;;;;;;2.40;0.30;;;;;;;6.69;58.00;99779.72;4959739;28;20031;-63
2023/12/25 01:29:51;;;;;;;4.55;0.50;;;;;;;6.75;57.96;99776.84;4955704;28;20047;-64
2023/12/25 01:32:16;;;;;;;13.45;0.50;;;;;;;6.89;57.57;99771.94;4969641;28;20496;-63
2023/12/25 01:34:42;;;;;;;6.05;0.82;;;;;;;6.66;58.51;99772.91;4958025;28;20035;-64
2023/12/25 01:37:07;;;;;;;3.50;0.52;;;;;;;6.75;58.43;99784.66;4958924;28;20619;-64
2023/12/25 01:39:33;;;;;;;5.28;0.50;;;;;;;6.47;59.00;99787.53;4958609;28;20048;-64
2023/12/25 01:41:59;;;;;;;9.25;0.75;;;;;;;6.60;58.80;99808.69;4959852;28;20027;-63
2023/12/25 01:44:24;;;;;;;10.55;1.60;;;;;;;6.68;58.70;99801.41;4960249;28;20042;-63
2023/12/25 01:46:50;;;;;;;5.63;0.52;;;;;;;6.96;57.95;99821.06;4960921;28;20129;-64
2023/12/25 01:49:16;;;;;;;13.15;1.38;;;;;;;6.60;58.53;99813.88;4970603;28;20038;-63
2023/12/25 01:51:41;;;;;;;2.60;0.43;;;;;;;6.47;58.68;99809.16;4958005;28;20097;-63
2023/12/25 01:54:07;;;;;;;8.52;1.00;;;;;;;6.32;58.76;99820.13;4955703;28;20046;-66
2023/12/25 01:56:33;;;;;;;12.65;0.70;;;;;;;6.40;58.50;99817.25;4958194;28;20146;-63
2023/12/25 01:58:59;;;;;;;8.13;1.15;;;;;;;6.40;58.41;99817.25;4955917;28;20027;-63
2023/12/25 02:01:24;;;;;;;5.80;0.73;;;;;;;6.77;57.64;99801.00;4971189;28;20026;-64
2023/12/25 02:03:50;;;;;;;11.60;1.00;;;;;;;6.91;56.77;99822.09;4959549;28;20090;-64
2023/12/25 02:06:16;;;;;;;8.93;1.10;;;;;;;6.90;56.77;99827.34;4958044;28;20038;-64
2023/12/25 02:08:42;;;;;;;10.55;0.90;;;;;;;6.44;58.12;99822.25;4943351;28;20117;-64
2023/12/25 02:11:08;;;;;;;13.70;1.73;;;;;;;6.50;57.72;99822.00;4952294;28;20137;-64
2023/12/25 02:13:33;;;;;;;7.40;0.80;;;;;;;6.72;56.88;99805.56;4961358;28;20413;-65
2023/12/25 02:15:59;;;;;;;14.75;1.08;;;;;;;6.09;58.58;99819.25;4952573;28;20052;-65
2023/12/25 02:18:25;;;;;;;7.10;1.08;;;;;;;5.77;58.75;99775.50;4973102;28;20343;-64
2023/12/25 02:20:55;;;;;;;6.85;0.60;;;;;;;6.09;58.30;99823.59;4969550;28;20548;-64
2023/12/25 02:23:24;;;;;;;14.63;1.40;;;;;;;6.62;57.00;99836.25;4949748;28;20043;-64
2023/12/25 02:25:58;;;;;;;10.68;1.63;;;;;;;6.04;57.29;99818.59;4955861;28;20054;-64
2023/12/25 02:28:24;;;;;;;7.18;0.70;;;;;;;6.28;57.38;99836.72;4975291;28;20049;-64
2023/12/25 02:30:51;;;;;;;13.45;1.33;;;;;;;6.09;57.09;99826.19;4965055;28;20070;-64
2023/12/25 02:33:16;;;;;;;13.57;2.03;;;;;;;6.13;56.93;99830.38;4963256;28;20181;-68
2023/12/25 02:35:42;;;;;;;13.00;0.68;;;;;;;6.24;56.59;99829.97;4960944;28;20129;-69
2023/12/25 02:38:09;;;;;;;13.27;1.08;;;;;;;6.27;56.47;99838.44;4959039;28;20571;-69
2023/12/25 02:40:35;;;;;;;8.43;1.17;;;;;;;6.19;56.52;99847.44;4961589;28;20050;-68
2023/12/25 02:43:01;;;;;;;10.10;2.05;;;;;;;6.22;56.83;99834.34;4957894;28;20035;-69
2023/12/25 02:45:27;;;;;;;12.25;0.95;;;;;;;6.31;56.46;99851.31;4951664;28;20133;-69
2023/12/25 02:47:53;;;;;;;21.13;1.90;;;;;;;6.21;56.26;99848.22;4960304;28;20125;-68
2023/12/25 02:50:18;;;;;;;12.30;1.08;;;;;;;6.34;56.15;99852.06;4972541;28;20042;-67
2023/12/25 02:52:44;;;;;;;6.28;0.98;;;;;;;6.22;55.86;99842.13;4960737;28;20560;-68
2023/12/25 02:55:10;;;;;;;13.88;2.05;;;;;;;6.36;55.90;99855.44;4971690;28;20049;-68
2023/12/25 02:57:35;;;;;;;9.20;1.98;;;;;;;6.37;55.88;99853.69;4960946;28;20493;-68
2023/12/25 03:00:01;;;;;;;10.98;1.48;;;;;;;5.94;56.78;99848.34;4952411;28;20042;-69
2023/12/25 03:02:27;;;;;;;20.00;1.65;;;;;;;6.27;55.75;99858.38;4963961;28;20129;-68
2023/12/25 03:04:53;;;;;;;7.60;1.15;;;;;;;6.43;55.31;99874.22;4959640;28;20493;-63
2023/12/25 03:07:19;;;;;;;11.90;1.20;;;;;;;5.95;56.39;99868.22;4972499;28;20062;-62
2023/12/25 03:09:44;;;;;;;18.38;1.52;;;;;;;6.15;55.77;99869.19;4957160;28;20105;-66
2023/12/25 03:12:10;;;;;;;16.23;1.13;;;;;;;5.85;56.71;99877.22;4962478;28;20502;-66
2023/12/25 03:14:35;;;;;;;18.42;1.85;;;;;;;6.03;55.96;99871.34;4967989;28;20070;-66
2023/12/25 03:17:01;;;;;;;13.75;2.30;;;;;;;6.34;55.56;99879.78;4959753;28;20061;-67
2023/12/25 03:19:27;;;;;;;10.88;1.15;;;;;;;6.47;54.85;99884.44;4960101;28;20043;-66
2023/12/25 03:21:52;;;;;;;8.10;1.15;;;;;;;6.28;55.22;99886.03;4968798;28;20165;-66
2023/12/25 03:24:17;;;;;;;14.48;2.03;;;;;;;6.42;55.25;99888.13;4961480;28;20532;-66
2023/12/25 03:26:43;;;;;;;14.75;1.88;;;;;;;6.36;55.25;99889.19;4958570;28;20304;-66
2023/12/25 03:29:09;;;;;;;14.82;2.03;;;;;;;6.13;55.48;99894.34;4960069;28;20063;-66
2023/12/25 03:31:34;;;;;;;14.63;2.03;;;;;;;6.07;56.04;99893.69;4961433;28;20611;-66
2023/12/25 03:34:00;;;;;;;10.70;2.03;;;;;;;6.52;54.82;99902.41;4971503;28;20487;-66
2023/12/25 03:36:26;;;;;;;8.70;0.77;;;;;;;6.13;55.76;99896.94;4961204;28;20037;-66
2023/12/25 03:38:51;;;;;;;8.13;0.88;;;;;;;6.01;56.29;99909.47;4958132;28;20060;-64
2023/12/25 03:41:17;;;;;;;15.30;2.03;;;;;;;6.22;55.89;99901.81;4958440;28;20062;-64
2023/12/25 03:43:42;;;;;;;12.77;1.25;;;;;;;6.30;55.65;99912.78;4959481;28;20117;-63
2023/12/25 03:46:08;;;;;;;12.20;1.30;;;;;;;6.04;56.08;99914.56;4963068;28;20039;-65
2023/12/25 03:48:34;;;;;;;9.70;2.03;;;;;;;6.30;55.65;99915.38;4960713;28;20313;-66
2023/12/25 03:50:59;;;;;;;15.43;1.50;;;;;;;6.29;55.90;99913.69;4959218;28;20042;-64
2023/12/25 03:53:25;;;;;;;15.98;1.67;;;;;;;6.17;55.74;99924.47;4967484;28;21632;-65
2023/12/25 03:55:50;;;;;;;10.75;1.40;;;;;;;6.19;55.61;99917.47;4971947;28;20070;-65
2023/12/25 03:58:16;;;;;;;10.18;1.35;;;;;;;6.06;55.82;99910.16;4972721;28;20026;-64
2023/12/25 04:00:41;;;;;;;13.00;1.35;;;;;;;6.03;55.60;99905.06;4962191;28;20114;-65
2023/12/25 04:03:07;;;;;;;12.23;1.58;;;;;;;6.09;56.10;99899.66;4974933;28;20027;-66
2023/12/25 04:05:33;;;;;;;10.23;1.70;;;;;;;5.81;56.46;99902.41;4967515;28;20039;-65
2023/12/25 04:07:58;;;;;;;12.98;1.38;;;;;;;5.87;56.74;99916.91;4974859;28;20031;-65
2023/12/25 04:10:23;;;;;;;10.90;1.30;;;;;;;6.14;55.65;99928.03;4959247;28;20852;-65
2023/12/25 04:12:49;;;;;;;19.63;1.77;;;;;;;6.05;55.63;99913.66;4964634;28;20068;-66
2023/12/25 04:15:14;;;;;;;11.15;1.25;;;;;;;6.45;54.87;99919.97;4960620;28;20184;-65
2023/12/25 04:17:40;;;;;;;12.77;1.38;;;;;;;6.34;55.27;99924.72;4964030;28;20034;-65
2023/12/25 04:20:06;;;;;;;4.78;1.25;;;;;;;6.16;55.57;99922.81;4960939;28;20125;-65
2023/12/25 04:22:31;;;;;;;16.90;1.80;;;;;;;6.25;55.99;99932.84;4963004;28;20038;-65
2023/12/25 04:24:57;;;;;;;14.23;1.63;;;;;;;6.35;55.34;99922.97;4976312;28;20052;-65
2023/12/25 04:27:23;;;;;;;10.98;0.70;;;;;;;6.51;54.96;99934.50;4960709;28;20042;-65
2023/12/25 04:29:49;;;;;;;11.25;1.33;;;;;;;6.80;54.44;99938.56;4961505;28;20077;-65
2023/12/25 04:32:14;;;;;;;14.35;1.10;;;;;;;6.47;55.28;99932.91;4958756;28;20026;-65
2023/12/25 04:34:40;;;;;;;14.40;1.55;;;;;;;5.71;57.20;99952.06;4968799;28;20034;-65
2023/12/25 04:37:05;;;;;;;14.18;0.57;;;;;;;5.62;55.99;99961.84;4959034;28;20143;-66
2023/12/25 04:39:33;;;;;;;5.82;0.70;;;;;;;5.44;56.20;99950.34;4971594;28;20062;-65
2023/12/25 04:41:59;;;;;;;5.93;0.65;;;;;;;5.52;55.82;99957.84;4967103;28;20030;-65
2023/12/25 04:44:25;;;;;;;7.90;0.70;;;;;;;5.41;56.15;99947.88;4961654;28;20101;-65
2023/12/25 04:46:50;;;;;;;11.52;1.05;;;;;;;6.00;55.07;99967.44;4966087;28;20038;-65
2023/12/25 04:49:16;;;;;;;9.20;1.25;;;;;;;5.83;54.74;99962.00;4962027;28;20500;-65
2023/12/25 04:51:43;;;;;;;11.13;1.60;;;;;;;5.52;55.60;99957.03;4948367;28;20035;-66
2023/12/25 04:54:08;;;;;;;7.82;0.80;;;;;;;5.94;55.19;99949.50;4964680;28;20526;-66
2023/12/25 04:56:34;;;;;;;10.23;1.42;;;;;;;6.05;55.99;99965.53;4963198;28;20030;-65
2023/12/25 04:58:59;;;;;;;40.15;2.30;;;;;;;5.75;57.18;99964.88;4975258;28;20488;-66
2023/12/25 05:01:26;;;;;;;10.98;1.10;;;;;;;5.70;57.95;99955.53;4974790;28;20026;-65
2023/12/25 05:03:51;;;;;;;16.75;1.60;;;;;;;5.74;57.47;99970.94;4959417;28;20556;-65
2023/12/25 05:06:16;;;;;;;18.05;1.95;;;;;;;5.67;57.83;99965.13;4959910;28;20408;-64
2023/12/25 05:08:42;;;;;;;12.73;1.30;;;;;;;5.37;58.49;99974.78;4963907;28;20076;-65
2023/12/25 05:11:07;;;;;;;11.10;1.05;;;;;;;5.86;57.48;99980.91;4958473;28;20074;-65
2023/12/25 05:13:33;;;;;;;12.15;1.80;;;;;;;5.83;57.17;99977.56;4960507;28;20711;-67
2023/12/25 05:15:59;;;;;;;10.32;0.75;;;;;;;5.55;57.64;99973.31;4960981;28;20045;-67
2023/12/25 05:18:24;;;;;;;16.27;1.48;;;;;;;5.84;57.18;99981.88;4974301;28;20050;-67
2023/12/25 05:20:50;;;;;;;11.80;2.70;;;;;;;6.09;56.26;99980.09;4960303;28;20142;-68
2023/12/25 05:23:15;;;;;;;14.77;1.73;;;;;;;5.76;57.32;99991.66;4961034;28;20062;-65
2023/12/25 05:25:41;;;;;;;10.63;1.67;;;;;;;6.12;56.01;99989.50;4960716;28;20563;-66
2023/12/25 05:28:06;;;;;;;11.50;1.05;;;;;;;6.37;55.65;99993.84;4972698;28;20034;-71
2023/12/25 05:30:32;;;;;;;16.23;1.05;;;;;;;6.13;56.26;99995.53;4958420;28;20071;-71
2023/12/25 05:32:57;;;;;;;10.73;0.93;;;;;;;6.11;56.70;99992.19;4960955;28;20042;-70
2023/12/25 05:35:23;;;;;;;15.95;1.35;;;;;;;6.18;56.27;100001.44;4960680;28;20531;-70
2023/12/25 05:37:49;;;;;;;10.52;1.85;;;;;;;5.81;57.25;100003.53;4959818;28;20586;-71
2023/12/25 05:40:15;;;;;;;16.15;1.80;;;;;;;5.74;57.10;99988.25;4974162;28;20038;-70
2023/12/25 05:42:41;;;;;;;15.85;1.33;;;;;;;5.48;54.86;100009.84;4962846;28;20331;-71
2023/12/25 05:45:07;;;;;;;11.02;0.95;;;;;;;5.71;54.01;100017.72;4972886;28;20039;-64
2023/12/25 05:47:33;;;;;;;10.73;0.75;;;;;;;5.32;54.12;100009.50;4965026;28;20413;-64
2023/12/25 05:49:58;;;;;;;4.00;0.65;;;;;;;5.75;52.58;100034.00;4971499;28;20050;-63
2023/12/25 05:52:24;;;;;;;9.52;1.13;;;;;;;5.48;52.84;100023.69;4957951;28;20642;-66
2023/12/25 05:54:50;;;;;;;9.43;0.70;;;;;;;5.21;52.69;100039.19;4966198;28;20039;-64
2023/12/25 05:57:16;;;;;;;7.13;0.80;;;;;;;5.28;52.34;100049.34;4960749;28;20030;-64
2023/12/25 05:59:41;;;;;;;8.23;0.85;;;;;;;5.52;51.39;100056.34;4957242;28;20038;-63
2023/12/25 06:02:08;;;;;;;5.90;0.52;;;;;;;4.86;52.43;100060.09;4959086;28;20475;-64
2023/12/25 06:04:33;;;;;;;11.25;0.73;;;;;;;5.04;51.71;100054.41;4959081;28;20074;-66
2023/12/25 06:06:59;;;;;;;6.68;0.35;;;;;;;5.15;51.45;100057.53;4957182;28;20034;-64
2023/12/25 06:09:26;;;;;;;11.13;1.15;;;;;;;5.40;50.99;100051.56;4954757;28;20046;-63
2023/12/25 06:11:52;;;;;;;6.05;1.13;;;;;;;5.09;51.49;100062.88;4967241;28;20433;-63
2023/12/25 06:14:18;;;;;;;11.60;0.75;;;;;;;4.94;52.00;100065.91;4958179;28;20486;-66
2023/12/25 06:16:43;;;;;;;9.43;0.80;;;;;;;5.07;51.97;100071.59;4959427;28;20088;-64
2023/12/25 06:19:09;;;;;;;8.20;0.45;;;;;;;5.26;51.74;100070.16;4955520;28;21009;-64
2023/12/25 06:21:34;;;;;;;9.48;1.20;;;;;;;5.39;51.76;100074.06;4967276;28;20590;-64
2023/12/25 06:24:00;;;;;;;6.63;0.32;;;;;;;4.87;53.35;100073.00;4958184;28;20142;-65
2023/12/25 06:26:25;;;;;;;18.45;1.38;;;;;;;5.28;52.66;100072.66;4958271;28;20049;-64
2023/12/25 06:28:50;;;;;;;8.68;1.00;;;;;;;5.29;53.01;100079.56;4962769;28;20869;-64
2023/12/25 06:31:16;;;;;;;6.22;1.25;;;;;;;5.11;53.98;100081.81;4959877;28;20702;-64
2023/12/25 06:33:42;;;;;;;6.68;0.93;;;;;;;5.05;54.52;100087.16;4963900;28;20034;-65
2023/12/25 06:36:07;;;;;;;12.70;1.50;;;;;;;5.08;54.57;100094.00;4960965;28;20497;-65
2023/12/25 06:38:32;;;;;;;6.05;1.30;;;;;;;5.40;53.82;100093.03;4961104;28;20041;-65
2023/12/25 06:40:59;;;;;;;13.80;2.05;;;;;;;5.12;54.94;100100.78;4961094;28;20108;-70
2023/12/25 06:43:25;;;;;;;10.40;1.02;;;;;;;5.06;55.39;100099.25;4961377;28;20042;-70
2023/12/25 06:45:51;;;;;;;15.35;3.05;;;;;;;4.88;56.26;100089.41;4961114;28;21090;-70
2023/12/25 06:48:16;;;;;;;14.68;1.48;;;;;;;4.93;56.49;100097.91;4964681;28;20031;-70
2023/12/25 06:50:42;;;;;;;16.58;2.70;;;;;;;5.24;55.81;100088.31;4960877;28;20045;-70
2023/12/25 06:53:07;;;;;;;8.02;0.70;;;;;;;5.11;55.69;100097.34;4959394;28;20731;-70
2023/12/25 06:55:33;;;;;;;10.35;1.15;;;;;;;4.89;56.80;100098.88;4964414;28;20073;-70
2023/12/25 06:57:58;;;;;;;14.20;1.88;;;;;;;4.89;56.73;100104.06;4957724;28;20034;-70
2023/12/25 07:00:24;;;;;;;13.95;1.05;;;;;;;4.99;56.27;100097.72;4974863;28;20038;-70
2023/12/25 07:02:50;;;;;;;13.40;1.45;;;;;;;4.73;57.27;100096.69;4961501;28;20505;-70
2023/12/25 07:05:16;;;;;;;8.18;0.80;;;;;;;4.97;56.87;100095.19;4960099;28;20038;-70
2023/12/25 07:07:42;;;;;;;11.25;1.63;;;;;;;5.22;56.29;100104.81;4977065;28;20516;-69
2023/12/25 07:10:07;;;;;;;8.80;1.88;;;;;;;5.07;55.99;100116.47;4959905;28;20069;-69
2023/12/25 07:12:33;;;;;;;15.65;2.00;;;;;;;5.21;55.44;100114.34;4960613;28;20034;-69
2023/12/25 07:14:58;;;;;;;12.82;1.73;;;;;;;5.25;55.40;100121.09;4958489;28;20045;-66
2023/12/25 07:17:24;;;;;;;13.45;1.02;;;;;;;5.25;55.26;100131.47;4956598;28;20753;-65
2023/12/25 07:19:49;;;;;;;19.40;2.28;;;;;;;4.95;56.92;100137.56;4959459;28;20077;-65
2023/12/25 07:22:15;;;;;;;19.30;1.80;;;;;;;4.51;57.77;100137.00;4956092;28;20775;-64
2023/12/25 07:24:40;;;;;;;24.95;1.33;;;;;;;4.71;57.41;100144.22;4956148;28;20038;-65
2023/12/25 07:27:06;;;;;;;17.25;1.88;;;;;;;4.83;57.02;100144.75;4964953;28;20027;-73
2023/12/25 07:29:31;;;;;;;11.30;1.02;;;;;;;5.02;56.42;100144.25;4972846;28;20035;-65
2023/12/25 07:31:57;;;;;;;22.00;1.52;;;;;;;4.93;56.83;100157.47;4963605;28;20031;-64
2023/12/25 07:34:23;;;;;;;17.35;1.85;;;;;;;5.23;55.96;100166.97;4949272;28;20154;-64
2023/12/25 07:36:49;;;;;;;14.45;1.95;;;;;;;5.14;56.00;100154.25;4963891;28;20849;-64
2023/12/25 07:39:16;;;;;;;16.58;1.42;;;;;;;4.91;56.79;100151.47;4965986;28;20050;-66
2023/12/25 07:41:45;;;;;;;16.17;1.80;;;;;;;4.51;58.40;100163.72;4960992;28;20184;-65
2023/12/25 07:44:17;;;;;;;16.30;1.88;;;;;;;4.80;57.88;100159.50;4974550;28;20584;-64
2023/12/25 07:46:42;;;;;;;;;;;;;;;5.31;56.41;100169.31;4959687;28;20436;-65
2023/12/25 07:49:08;;;;;;;13.18;0.85;;;;;;;5.10;57.35;100178.56;4961451;28;19921;-64
2023/12/25 07:51:33;;;;;;;13.95;2.83;;;;;;;5.34;56.17;100176.97;4971853;28;20130;-64
2023/12/25 07:53:59;;;;;;;20.60;2.03;;;;;;;5.61;55.50;100174.47;4960117;28;20034;-64
2023/12/25 07:56:25;;;;;;;16.40;1.98;;;;;;;5.22;55.21;100175.59;4965895;28;20159;-64
2023/12/25 07:58:51;;;;;;;22.35;4.05;;;;;;;5.43;54.17;100181.06;4974006;28;20092;-64
2023/12/25 08:01:22;;;;;;;14.38;1.20;;;;;;;5.27;54.32;100190.19;4960971;28;20058;-63
2023/12/25 08:03:49;;;;;;;10.75;1.20;;;;;;;5.58;54.55;100192.72;4961232;28;20423;-64
2023/12/25 08:06:15;;;;;;;12.23;1.75;;;;;;;5.71;55.02;100190.59;4959530;28;20065;-64
2023/12/25 08:08:40;;;;;;;15.25;1.20;;;;;;;5.83;54.94;100208.38;4958617;28;20026;-64
2023/12/25 08:11:05;;;;;;;11.70;1.73;;;;;;;5.23;57.49;100199.75;4959149;28;20540;-64
2023/12/25 08:13:31;;;;;;;20.25;2.25;;;;;;;5.10;57.80;100198.41;4959744;28;20448;-66
2023/12/25 08:15:56;;;;;;;14.52;1.65;;;;;;;5.11;57.79;100208.75;4959817;28;20423;-65
2023/12/25 08:18:22;;;;;;;22.27;1.73;;;;;;;5.45;56.24;100210.38;4956226;28;20050;-64
2023/12/25 08:20:47;;;;;;;18.80;2.42;;;;;;;5.52;56.35;100211.88;4973686;28;20053;-64
2023/12/25 08:23:13;;;;;;;10.18;1.27;;;;;;;5.31;56.36;100213.38;4960530;28;20033;-63
2023/12/25 08:25:40;;;;;;;15.55;1.55;;;;;;;5.45;55.88;100231.09;4958071;28;20641;-63
2023/12/25 08:28:06;;;;;;;11.88;1.65;;;;;;;5.51;56.31;100233.53;4958751;28;20034;-64
2023/12/25 08:30:31;;;;;;;7.28;1.17;;;;;;;5.57;56.10;100240.25;4960618;28;20072;-64
2023/12/25 08:32:57;;;;;;;11.30;2.20;;;;;;;4.83;58.04;100227.59;4959248;28;20404;-65
2023/12/25 08:35:22;;;;;;;10.52;1.85;;;;;;;5.36;56.60;100241.72;4956910;28;20505;-63
2023/12/25 08:37:48;;;;;;;22.52;1.58;;;;;;;5.42;56.57;100244.16;4974018;28;20035;-64
2023/12/25 08:40:14;;;;;;;14.00;1.15;;;;;;;5.16;57.71;100245.72;4959180;28;20137;-64
2023/12/25 08:42:39;;;;;;;18.13;2.08;;;;;;;5.60;56.47;100256.59;4962452;28;20062;-64
2023/12/25 08:45:07;;;;;;;12.30;1.23;;;;;;;5.42;57.74;100251.94;4949543;28;20595;-64
2023/12/25 08:47:33;;;;;;;12.05;2.35;;;;;;;4.97;58.28;100254.91;4960853;28;20191;-64
2023/12/25 08:49:59;;;;;;;20.27;2.58;;;;;;;5.29;57.38;100256.59;4958525;28;20516;-63
2023/12/25 08:52:24;;;;;;;8.88;1.23;;;;;;;5.07;57.07;100258.94;4974417;28;20034;-64
2023/12/25 08:54:50;;;;;;;24.30;2.80;;;;;;;5.03;55.94;100275.44;4958845;28;20054;-64
2023/12/25 08:57:15;;;;;;;16.13;1.50;;;;;;;5.23;55.10;100269.72;4958806;28;20037;-64
2023/12/25 08:59:41;;;;;;;13.68;0.93;;;;;;;5.28;55.12;100274.78;4958651;28;20057;-63
2023/12/25 09:02:07;;;;;;;17.13;1.33;;;;;;;5.37;54.55;100282.28;4970813;28;20038;-65
2023/12/25 09:04:32;;;;;;;22.15;1.52;;;;;;;5.22;55.43;100283.59;4960182;28;20143;-64
2023/12/25 09:06:58;;;;;;;18.55;2.45;;;;;;;5.35;55.34;100291.88;4957982;28;20515;-63
2023/12/25 09:09:23;;;;;;;15.20;1.75;;;;;;;5.43;55.93;100295.09;4957029;28;20053;-64
2023/12/25 09:11:49;;;;;;;15.95;1.38;;;;;;;5.29;56.58;100305.00;4973544;28;20046;-64
2023/12/25 09:14:15;;;;;;;14.77;2.25;;;;;;;5.66;55.98;100310.84;4964359;28;20049;-64
2023/12/25 09:16:40;;;;;;;16.20;1.15;;;;;;;5.60;56.10;100315.38;4959615;28;20105;-65
2023/12/25 09:19:06;;;;;;;15.13;2.88;;;;;;;5.73;55.69;100319.31;4956319;28;20062;-66
2023/12/25 09:21:40;;;;;;;15.20;1.80;;;;;;;5.56;55.77;100317.19;4958922;28;20038;-65
2023/12/25 09:24:06;;;;;;;18.95;2.67;;;;;;;5.70;54.83;100313.34;4955291;28;20145;-66
2023/12/25 09:26:32;;;;;;;17.02;1.52;;;;;;;5.83;54.52;100317.28;4964921;28;20689;-65
2023/12/25 09:28:57;;;;;;;14.77;1.90;;;;;;;6.16;53.44;100314.59;4958793;28;20042;-64
2023/12/25 09:31:23;;;;;;;16.42;1.38;;;;;;;6.12;52.55;100320.78;4957860;28;20093;-64
2023/12/25 09:33:48;;;;;;;13.98;2.15;;;;;;;5.95;52.70;100321.25;4956485;28;20037;-64
2023/12/25 09:36:14;;;;;;;16.38;1.27;;;;;;;6.44;51.15;100332.78;4970538;28;20050;-64
2023/12/25 09:38:40;;;;;;;12.68;1.45;;;;;;;6.33;51.18;100340.03;4957985;28;20051;-64
2023/12/25 09:41:14;;;;;;;15.27;1.30;;;;;;;6.64;49.69;100338.22;4970377;28;20401;-64
2023/12/25 09:43:44;;;;;;;14.32;1.92;;;;;;;6.72;48.33;100344.91;4958619;28;20039;-64
2023/12/25 09:46:09;;;;;;;5.10;0.88;;;;;;;6.81;47.97;100337.66;4954325;28;20059;-64
2023/12/25 09:48:37;;;;;;;16.80;2.03;;;;;;;6.62;48.46;100346.91;4956507;28;20604;-66
2023/12/25 09:51:04;;;;;;;15.57;1.90;;;;;;;6.82;47.80;100354.06;4954982;28;20107;-65
2023/12/25 09:53:30;;;;;;;10.73;1.00;;;;;;;6.46;47.89;100347.44;4955094;28;20553;-65
2023/12/25 09:55:58;;;;;;;9.50;1.00;;;;;;;6.60;48.15;100351.34;4952547;28;20042;-65
2023/12/25 09:58:26;;;;;;;25.33;2.90;;;;;;;6.95;47.60;100351.94;4956061;28;20084;-65
2023/12/25 10:00:53;;;;;;;17.15;1.85;;;;;;;7.20;46.88;100352.81;4955078;28;20052;-66
2023/12/25 10:03:20;;;;;;;12.25;1.80;;;;;;;6.78;47.27;100355.94;4966216;28;20304;-64
2023/12/25 10:05:46;;;;;;;8.38;1.52;;;;;;;6.94;46.95;100345.06;4951950;28;20110;-65
2023/12/25 10:08:11;;;;;;;16.42;1.85;;;;;;;7.01;47.66;100344.78;4951080;28;20027;-64
2023/12/25 10:10:37;;;;;;;18.00;2.63;;;;;;;7.08;47.02;100350.63;4951948;28;20030;-64
2023/12/25 10:13:04;;;;;;;16.08;1.88;;;;;;;6.66;48.60;100353.72;4956539;28;20496;-65
2023/12/25 10:15:30;;;;;;;14.52;2.03;;;;;;;6.85;48.20;100343.59;4953283;28;20074;-65
2023/12/25 10:18:06;;;;;;;11.13;1.42;;;;;;;6.66;48.67;100343.34;4956176;28;20023;-65
2023/12/25 10:20:32;;;;;;;17.23;1.58;;;;;;;7.05;48.36;100328.19;4952364;28;20048;-65
2023/12/25 10:22:59;;;;;;;20.70;3.63;;;;;;;6.93;47.69;100330.34;4955021;28;20030;-64
2023/12/25 10:25:28;;;;;;;9.95;2.15;;;;;;;6.97;47.79;100329.34;4950524;28;20038;-64
2023/12/25 10:27:54;;;;;;;10.38;1.60;;;;;;;7.01;48.17;100338.75;4940125;28;20124;-64
2023/12/25 10:30:24;;;;;;;9.38;1.30;;;;;;;7.02;47.84;100335.22;4955521;28;20046;-64
2023/12/25 10:33:13;;;;;;;13.07;2.03;;;;;;;7.36;47.63;100334.09;4956712;28;20039;-65
2023/12/25 10:35:39;;;;;;;11.43;1.88;;;;;;;6.69;48.75;100341.50;4952701;28;20224;-65
2023/12/25 10:38:05;;;;;;;10.90;1.02;;;;;;;6.97;48.03;100342.34;4954831;28;20038;-65
2023/12/25 10:40:32;;;;;;;16.80;2.00;;;;;;;6.85;48.54;100339.25;4951461;28;20764;-64
2023/12/25 10:42:58;;;;;;;14.82;1.88;;;;;;;7.16;47.27;100337.38;4954143;28;20098;-64
2023/12/25 10:45:25;;;;;;;13.75;2.75;;;;;;;7.21;47.98;100340.66;4966948;28;20039;-64
2023/12/25 10:47:56;;;;;;;17.88;1.95;;;;;;;6.91;48.64;100341.66;4960290;28;20042;-64
2023/12/25 10:50:26;;;;;;;17.52;1.98;;;;;;;7.43;48.18;100343.38;4953431;28;20420;-64
2023/12/25 10:53:06;;;;;;;15.25;1.02;;;;;;;7.04;48.63;100341.22;4945053;28;20031;-65
2023/12/25 10:55:40;;;;;;;20.98;3.30;;;;;;;6.55;50.80;100351.50;4956936;28;20122;-64
2023/12/25 10:58:08;;;;;;;14.50;2.08;;;;;;;6.95;49.41;100336.34;4976579;28;20033;-63
2023/12/25 11:00:49;;;;;;;22.13;2.80;;;;;;;6.31;51.53;100344.44;4960548;28;20043;-63
2023/12/25 11:03:15;;;;;;;16.17;2.33;;;;;;;6.83;50.34;100346.25;4961599;28;20085;-63
2023/12/25 11:05:41;;;;;;;20.00;2.25;;;;;;;6.49;50.35;100349.94;4960509;28;21754;-64
2023/12/25 11:08:12;;;;;;;13.65;1.60;;;;;;;6.68;50.33;100357.13;4960244;28;20671;-64
2023/12/25 11:10:37;;;;;;;12.63;1.02;;;;;;;6.75;49.98;100348.22;4975060;28;20045;-64
2023/12/25 11:13:04;;;;;;;11.88;1.10;;;;;;;7.02;49.28;100356.00;4959616;28;20034;-63
2023/12/25 11:15:30;;;;;;;20.13;1.70;;;;;;;7.33;48.61;100359.28;4958182;28;20038;-63
2023/12/25 11:17:55;;;;;;;13.23;1.80;;;;;;;6.99;48.28;100366.53;4958051;28;20058;-63
2023/12/25 11:20:21;;;;;;;16.38;1.55;;;;;;;7.21;48.08;100382.25;4959231;28;20042;-64
2023/12/25 11:22:47;;;;;;;16.40;1.40;;;;;;;6.99;48.19;100382.13;4971292;28;20038;-64
2023/12/25 11:25:20;;;;;;;6.50;1.23;;;;;;;6.64;49.09;100381.47;4957679;28;20038;-63
2023/12/25 11:27:54;;;;;;;8.23;1.40;;;;;;;7.14;48.30;100386.81;4957661;28;20146;-64